Time;durP1;ratioP1;P1;durP2;ratioP2;P2;SDS_P1;SDS_P2;PMS_P1;PMS_P2;Temp;Humidity;BMP_temperature;BMP_pressure;BME280_temperature;BME280_humidity;BME280_pressure;Samples;Min_cycle;Max_cycle;Signal;HPM_P1;HPM_P2
2021/07/17 00:01:28;;;;;;;1.60;1.50;;;24.60;99.90;;;;;;4995301;28;20046;-82
2021/07/17 00:03:53;;;;;;;1.30;1.20;;;24.80;99.90;;;;;;5012513;28;20049;-89
2021/07/17 00:06:19;;;;;;;0.90;0.90;;;24.90;99.90;;;;;;4995870;28;20127;-88
2021/07/17 00:08:46;;;;;;;0.70;0.70;;;24.40;99.90;;;;;;5012828;28;20040;-87
2021/07/17 00:11:12;;;;;;;0.80;0.80;;;24.80;99.90;;;;;;5012256;28;20045;-87
2021/07/17 00:13:38;;;;;;;0.90;0.90;;;24.20;99.90;;;;;;5012568;28;20022;-89
2021/07/17 00:16:04;;;;;;;1.08;1.05;;;24.60;99.90;;;;;;5011981;28;20505;-80
2021/07/17 00:18:30;;;;;;;1.48;1.38;;;24.70;99.90;;;;;;5011552;28;20092;-77
2021/07/17 00:20:55;;;;;;;0.90;0.90;;;24.60;99.90;;;;;;5012413;28;20418;-80
2021/07/17 00:23:21;;;;;;;1.45;1.35;;;24.40;99.90;;;;;;4987297;28;20062;-80
2021/07/17 00:25:49;;;;;;;1.55;1.45;;;24.20;99.90;;;;;;4992761;28;20030;-81
2021/07/17 00:28:15;;;;;;;0.88;0.88;;;23.80;99.90;;;;;;4974583;28;20498;-87
2021/07/17 00:30:41;;;;;;;0.80;0.80;;;24.10;99.90;;;;;;4992650;28;20046;-86
2021/07/17 00:33:07;;;;;;;1.98;1.77;;;24.40;99.90;;;;;;4992308;28;20031;-82
2021/07/17 00:35:33;;;;;;;1.17;1.00;;;23.80;99.90;;;;;;5007453;28;20121;-82
2021/07/17 00:37:59;;;;;;;1.35;1.25;;;24.20;99.90;;;;;;5010921;28;20026;-93
2021/07/17 00:40:25;;;;;;;1.27;1.17;;;23.90;99.90;;;;;;5011887;28;20053;-84
2021/07/17 00:42:51;;;;;;;2.80;2.08;;;23.80;99.90;;;;;;4993888;28;20084;-89
2021/07/17 00:45:19;;;;;;;2.47;2.03;;;23.30;99.90;;;;;;5011482;28;20508;-85
2021/07/17 00:47:47;;;;;;;1.70;1.60;;;23.20;99.90;;;;;;5011102;28;20034;-91
2021/07/17 00:50:15;;;;;;;1.52;1.42;;;23.30;99.90;;;;;;5011083;28;20046;-85
2021/07/17 00:52:41;;;;;;;0.88;0.88;;;23.50;99.90;;;;;;4993986;28;20108;-85
2021/07/17 00:55:09;;;;;;;4.47;2.75;;;24.20;99.90;;;;;;5012158;28;20053;-86
2021/07/17 00:57:36;;;;;;;0.95;0.95;;;24.00;99.90;;;;;;5011553;28;20056;-82
2021/07/17 01:00:07;;;;;;;0.77;0.77;;;23.70;99.90;;;;;;5012272;28;20064;-84
2021/07/17 01:02:46;;;;;;;1.17;1.10;;;23.30;99.90;;;;;;5020566;28;20416;-87
2021/07/17 01:05:12;;;;;;;1.70;1.50;;;23.60;99.90;;;;;;5001453;28;20029;-87
2021/07/17 01:07:38;;;;;;;1.10;1.02;;;24.10;99.90;;;;;;5017861;28;20033;-86
2021/07/17 01:10:07;;;;;;;1.05;0.95;;;24.00;99.90;;;;;;5018504;28;20046;-89
2021/07/17 01:12:33;;;;;;;2.00;1.83;;;24.30;99.90;;;;;;5018585;28;20638;-87
2021/07/17 01:14:59;;;;;;;1.15;1.10;;;23.60;99.90;;;;;;5018272;28;20487;-88
2021/07/17 01:17:25;;;;;;;1.33;1.23;;;24.00;99.90;;;;;;5000660;28;20098;-87
2021/07/17 01:19:51;;;;;;;1.25;1.15;;;24.20;99.90;;;;;;5018331;28;20033;-87
2021/07/17 01:22:18;;;;;;;2.65;1.80;;;24.00;99.90;;;;;;5000976;28;20053;-86
2021/07/17 01:24:47;;;;;;;1.27;1.17;;;23.70;99.90;;;;;;5018735;28;20429;-84
2021/07/17 01:27:16;;;;;;;0.80;0.80;;;23.50;99.90;;;;;;5017820;28;20025;-88
2021/07/17 01:29:42;;;;;;;0.85;0.85;;;23.80;99.90;;;;;;5019120;28;20045;-92
2021/07/17 01:32:10;;;;;;;1.23;1.15;;;23.60;99.90;;;;;;5019716;28;20446;-87
2021/07/17 01:34:35;;;;;;;1.42;1.33;;;24.00;99.90;;;;;;5019540;28;20445;-85
2021/07/17 01:37:02;;;;;;;1.00;1.00;;;24.30;99.90;;;;;;5018335;28;20486;-86
2021/07/17 01:39:27;;;;;;;0.80;0.80;;;24.50;99.90;;;;;;5018114;28;20116;-81
2021/07/17 01:41:53;;;;;;;0.77;0.77;;;24.80;99.90;;;;;;5017957;28;20044;-82
2021/07/17 01:44:19;;;;;;;1.67;1.58;;;24.70;99.90;;;;;;5018146;28;20038;-80
2021/07/17 01:46:46;;;;;;;1.10;0.98;;;24.80;99.90;;;;;;5017826;28;20883;-83
2021/07/17 01:49:12;;;;;;;1.10;1.02;;;24.70;99.90;;;;;;5017285;28;20034;-82
2021/07/17 01:51:38;;;;;;;0.80;0.80;;;24.80;99.90;;;;;;5018110;28;20029;-88
2021/07/17 01:54:04;;;;;;;2.83;1.77;;;24.30;99.90;;;;;;5000486;28;20449;-83
2021/07/17 01:56:30;;;;;;;1.23;1.13;;;24.30;99.90;;;;;;5017870;28;20026;-88
2021/07/17 01:58:56;;;;;;;1.20;1.10;;;24.60;99.90;;;;;;5017655;28;20053;-87
2021/07/17 02:01:23;;;;;;;1.60;1.50;;;24.60;99.90;;;;;;5018306;28;20038;-86
2021/07/17 02:03:49;;;;;;;5.25;1.13;;;24.50;99.90;;;;;;5017464;28;20030;-84
2021/07/17 02:06:21;;;;;;;0.77;0.77;;;24.50;99.90;;;;;;5017690;28;20045;-85
2021/07/17 02:08:47;;;;;;;2.33;1.20;;;24.80;99.90;;;;;;5017734;28;20044;-86
2021/07/17 02:11:13;;;;;;;0.70;0.70;;;24.80;99.90;;;;;;5017720;28;20116;-88
2021/07/17 02:13:39;;;;;;;5.97;1.90;;;24.80;99.90;;;;;;5016146;28;20088;-85
2021/07/17 02:16:04;;;;;;;0.98;0.90;;;24.40;99.90;;;;;;5015153;28;20406;-87
2021/07/17 02:18:33;;;;;;;1.42;1.33;;;24.00;99.90;;;;;;5014279;28;20040;-87
2021/07/17 02:21:05;;;;;;;1.00;0.85;;;23.00;99.90;;;;;;5014454;28;20034;-86
2021/07/17 02:23:31;;;;;;;1.52;1.42;;;23.10;99.90;;;;;;5010091;28;20022;-91
2021/07/17 02:25:57;;;;;;;2.53;2.33;;;23.10;99.90;;;;;;4997198;28;20026;-94
2021/07/17 02:28:23;;;;;;;2.05;1.35;;;23.30;99.90;;;;;;4980917;28;20070;-92
2021/07/17 02:30:50;;;;;;;1.30;1.20;;;23.00;99.90;;;;;;4997071;28;20466;-94
2021/07/17 02:33:16;;;;;;;1.13;1.05;;;22.90;99.90;;;;;;4997193;28;20735;-91
2021/07/17 02:35:42;;;;;;;2.03;1.90;;;22.80;99.90;;;;;;4999127;28;20534;-90
2021/07/17 02:38:08;;;;;;;1.88;1.77;;;22.50;99.90;;;;;;4998586;28;20027;-94
2021/07/17 02:40:33;;;;;;;1.13;1.02;;;22.70;99.90;;;;;;4978632;28;20038;-94
2021/07/17 02:42:59;;;;;;;1.75;1.65;;;22.60;99.90;;;;;;4979074;28;20036;-90
2021/07/17 02:45:25;;;;;;;0.90;0.90;;;22.60;99.90;;;;;;4996133;28;20053;-91
2021/07/17 02:47:51;;;;;;;1.02;1.02;;;23.00;99.90;;;;;;4995268;28;20050;-85
2021/07/17 02:50:17;;;;;;;1.35;1.25;;;23.10;99.90;;;;;;4995885;28;20109;-88
2021/07/17 02:52:43;;;;;;;1.10;1.10;;;23.20;99.90;;;;;;4979222;28;20098;-88
2021/07/17 02:55:09;;;;;;;1.35;1.25;;;22.90;99.90;;;;;;4997034;28;20070;-86
2021/07/17 02:57:35;;;;;;;1.45;1.35;;;22.90;99.90;;;;;;5005494;28;20033;-90
2021/07/17 03:00:04;;;;;;;1.08;1.08;;;23.10;99.90;;;;;;4995847;28;20038;-90
2021/07/17 03:02:30;;;;;;;1.27;1.23;;;22.60;99.90;;;;;;4997795;28;20125;-88
2021/07/17 03:04:56;;;;;;;0.90;0.90;;;22.40;99.90;;;;;;4996029;28;20056;-88
2021/07/17 03:07:22;;;;;;;1.30;1.20;;;22.20;99.90;;;;;;4994851;28;20050;-88
2021/07/17 03:09:47;;;;;;;1.65;1.55;;;22.30;99.90;;;;;;4978096;28;20134;-89
2021/07/17 03:12:13;;;;;;;1.38;1.27;;;22.70;99.90;;;;;;4979082;28;20038;-93
2021/07/17 03:14:39;;;;;;;1.38;1.27;;;22.70;99.90;;;;;;4995330;28;20038;-86
2021/07/17 03:17:05;;;;;;;0.90;0.90;;;22.30;99.90;;;;;;4995464;28;20047;-90
2021/07/17 03:19:31;;;;;;;1.30;1.20;;;22.10;99.90;;;;;;4995464;28;20506;-92
2021/07/17 03:21:57;;;;;;;1.00;1.00;;;21.90;99.90;;;;;;4998102;28;20030;-93
2021/07/17 03:24:23;;;;;;;1.27;1.17;;;22.50;99.90;;;;;;4979825;28;20133;-89
2021/07/17 03:26:49;;;;;;;1.10;1.10;;;22.30;99.90;;;;;;4996917;28;20054;-94
2021/07/17 03:29:15;;;;;;;1.48;1.35;;;22.00;99.90;;;;;;4997202;28;20054;-93
2021/07/17 03:31:40;;;;;;;0.90;0.90;;;22.30;99.90;;;;;;4996145;28;20471;-89
2021/07/17 03:34:06;;;;;;;1.17;1.13;;;22.00;99.90;;;;;;4978234;28;20031;-91
2021/07/17 03:36:33;;;;;;;1.33;1.23;;;22.40;99.90;;;;;;4980726;28;20042;-91
2021/07/17 03:39:03;;;;;;;1.38;1.23;;;22.80;99.90;;;;;;4995479;28;20057;-91
2021/07/17 03:41:29;;;;;;;0.90;0.90;;;22.40;99.90;;;;;;4995949;28;20034;-94
2021/07/17 03:43:55;;;;;;;1.45;1.35;;;22.50;99.90;;;;;;4994722;28;20045;-89
2021/07/17 03:46:20;;;;;;;0.90;0.90;;;22.50;99.90;;;;;;4979045;28;20057;-88
2021/07/17 03:48:48;;;;;;;1.23;1.13;;;22.60;99.90;;;;;;4995617;28;20042;-91
2021/07/17 03:51:14;;;;;;;1.10;1.10;;;22.30;99.90;;;;;;4995296;28;20060;-91
2021/07/17 03:53:40;;;;;;;1.17;1.15;;;21.70;99.90;;;;;;4994696;28;20461;-89
2021/07/17 03:56:07;;;;;;;1.30;1.20;;;22.30;99.90;;;;;;4995317;28;20034;-91
2021/07/17 03:58:33;;;;;;;1.00;1.00;;;23.00;99.90;;;;;;4994761;28;20548;-92
2021/07/17 04:00:58;;;;;;;0.90;0.90;;;23.40;99.90;;;;;;4995093;28;20039;-92
2021/07/17 04:03:24;;;;;;;1.00;0.95;;;23.70;99.90;;;;;;4995248;28;20038;-95
2021/07/17 04:05:51;;;;;;;1.13;1.02;;;23.80;99.90;;;;;;4998143;28;20019;-92
2021/07/17 04:08:16;;;;;;;0.80;0.80;;;23.70;99.90;;;;;;4998391;28;20036;-94
2021/07/17 04:10:42;;;;;;;0.80;0.80;;;23.90;99.90;;;;;;4999162;28;20046;-94
2021/07/17 04:13:08;;;;;;;0.90;0.90;;;24.00;99.90;;;;;;5001681;28;20030;-93
2021/07/17 04:15:34;;;;;;;0.82;0.82;;;24.10;99.90;;;;;;5003782;28;20046;-93
2021/07/17 04:18:00;;;;;;;1.67;1.48;;;24.20;99.90;;;;;;4998236;28;20041;-88
2021/07/17 04:20:25;;;;;;;1.50;1.40;;;24.10;99.90;;;;;;4994288;28;20102;-91
2021/07/17 04:22:51;;;;;;;3.33;1.25;;;24.10;99.90;;;;;;4997110;28;20122;-93
2021/07/17 04:25:17;;;;;;;0.90;0.90;;;24.10;99.90;;;;;;4977653;28;20089;-90
2021/07/17 04:27:43;;;;;;;1.40;1.30;;;24.00;99.90;;;;;;4994920;28;20030;-89
2021/07/17 04:30:11;;;;;;;0.90;0.90;;;23.50;99.90;;;;;;4977712;28;20050;-89
2021/07/17 04:32:37;;;;;;;1.05;1.00;;;23.20;99.90;;;;;;4994683;28;20031;-92
2021/07/17 04:35:05;;;;;;;0.90;0.90;;;22.60;99.90;;;;;;4993966;28;20097;-89
2021/07/17 04:37:31;;;;;;;2.25;1.98;;;23.10;99.90;;;;;;4978910;28;20556;-93
2021/07/17 04:39:56;;;;;;;1.48;1.38;;;22.40;99.90;;;;;;4977373;28;20038;-87
2021/07/17 04:42:22;;;;;;;1.67;1.58;;;22.60;99.90;;;;;;4993913;28;20471;-91
2021/07/17 04:44:48;;;;;;;0.90;0.90;;;22.60;99.90;;;;;;4993934;28;20730;-91
2021/07/17 04:47:14;;;;;;;1.27;1.17;;;22.90;99.90;;;;;;4976477;28;20081;-90
2021/07/17 04:49:40;;;;;;;0.95;0.95;;;22.30;99.90;;;;;;4994476;28;20046;-94
2021/07/17 04:52:06;;;;;;;1.20;1.10;;;22.40;99.90;;;;;;4994190;28;20038;-91
2021/07/17 04:54:31;;;;;;;1.10;1.05;;;22.50;99.90;;;;;;4994445;28;20038;-92
2021/07/17 04:57:03;;;;;;;1.00;1.00;;;23.10;99.90;;;;;;4976635;28;20030;-87
2021/07/17 04:59:29;;;;;;;0.90;0.90;;;23.70;99.90;;;;;;4995678;28;20034;-92
2021/07/17 05:01:55;;;;;;;0.80;0.80;;;23.50;99.90;;;;;;4994871;28;20033;-88
2021/07/17 05:04:21;;;;;;;0.80;0.80;;;23.20;99.90;;;;;;4993741;28;20062;-90
2021/07/17 05:06:46;;;;;;;1.02;1.00;;;22.90;99.90;;;;;;4994474;28;20098;-87
2021/07/17 05:09:12;;;;;;;1.25;1.15;;;23.50;99.90;;;;;;4992035;28;20517;-86
2021/07/17 05:11:39;;;;;;;0.80;0.80;;;23.50;99.90;;;;;;4992252;28;20062;-86
2021/07/17 05:14:05;;;;;;;1.23;1.13;;;24.00;99.90;;;;;;4974965;28;20053;-89
2021/07/17 05:16:30;;;;;;;0.80;0.80;;;24.40;99.90;;;;;;4992252;28;20042;-88
2021/07/17 05:18:56;;;;;;;0.80;0.80;;;24.60;99.90;;;;;;4975806;28;20037;-87
2021/07/17 05:21:22;;;;;;;1.73;1.42;;;24.60;99.90;;;;;;4992817;28;20057;-88
2021/07/17 05:23:48;;;;;;;3.00;1.80;;;24.60;99.90;;;;;;4991518;28;20149;-80
2021/07/17 05:26:13;;;;;;;0.90;0.90;;;24.70;99.90;;;;;;4991937;28;20066;-79
2021/07/17 05:28:39;;;;;;;0.75;0.75;;;24.90;99.90;;;;;;4991458;28;20069;-79
2021/07/17 05:31:05;;;;;;;1.25;1.15;;;24.90;99.90;;;;;;4991950;28;20123;-80
2021/07/17 05:33:31;;;;;;;4.70;3.20;;;24.90;99.90;;;;;;4992033;28;20031;-85
2021/07/17 05:35:56;;;;;;;0.80;0.80;;;25.00;99.90;;;;;;4992230;28;20085;-87
2021/07/17 05:38:22;;;;;;;0.73;0.73;;;25.20;99.90;;;;;;4992817;28;20045;-87
2021/07/17 05:40:48;;;;;;;0.90;0.90;;;25.40;99.90;;;;;;4991762;28;20054;-81
2021/07/17 05:43:14;;;;;;;0.65;0.65;;;25.30;99.90;;;;;;4991656;28;20034;-87
2021/07/17 05:45:39;;;;;;;0.98;0.85;;;25.50;99.90;;;;;;4992529;28;20042;-87
2021/07/17 05:48:05;;;;;;;0.77;0.77;;;25.50;99.90;;;;;;4974689;28;20379;-87
2021/07/17 05:50:32;;;;;;;1.45;1.35;;;25.40;99.90;;;;;;4994354;28;20398;-85
2021/07/17 05:52:58;;;;;;;1.95;1.73;;;25.20;99.90;;;;;;4996164;28;20042;-90
2021/07/17 05:55:23;;;;;;;1.00;1.00;;;25.20;99.90;;;;;;4996237;28;20037;-89
2021/07/17 05:57:49;;;;;;;0.70;0.70;;;25.20;99.90;;;;;;4995174;28;20022;-85
2021/07/17 06:00:19;;;;;;;1.10;1.00;;;25.30;99.90;;;;;;4995064;28;20035;-85
2021/07/17 06:02:47;;;;;;;1.17;1.08;;;25.30;99.90;;;;;;4995787;28;20479;-91
2021/07/17 06:05:12;;;;;;;2.33;1.17;;;25.50;99.90;;;;;;4995313;28;20113;-86
2021/07/17 06:07:38;;;;;;;0.75;0.75;;;25.50;99.90;;;;;;4995339;28;20161;-85
2021/07/17 06:10:05;;;;;;;1.17;1.15;;;25.40;99.90;;;;;;4995651;28;20397;-85
2021/07/17 06:12:31;;;;;;;1.05;0.90;;;25.30;99.90;;;;;;4994856;28;20026;-85
2021/07/17 06:14:57;;;;;;;1.25;1.15;;;24.10;99.90;;;;;;4994989;28;20050;-84
2021/07/17 06:17:23;;;;;;;1.00;1.00;;;24.00;99.90;;;;;;4995130;28;20034;-87
2021/07/17 06:19:49;;;;;;;0.70;0.70;;;24.40;99.90;;;;;;4995650;28;20040;-87
2021/07/17 06:22:15;;;;;;;1.63;1.52;;;23.40;99.90;;;;;;4995258;28;20037;-87
2021/07/17 06:24:41;;;;;;;1.60;1.27;;;23.40;99.90;;;;;;4977751;28;20035;-88
2021/07/17 06:27:07;;;;;;;0.85;0.85;;;23.30;99.90;;;;;;4977760;28;20046;-87
2021/07/17 06:29:34;;;;;;;0.80;0.80;;;23.40;99.90;;;;;;4995517;28;20113;-86
2021/07/17 06:32:00;;;;;;;1.75;1.35;;;24.10;99.90;;;;;;4978714;28;20030;-89
2021/07/17 06:34:26;;;;;;;1.98;1.38;;;24.50;99.90;;;;;;4978653;28;20130;-84
2021/07/17 06:36:53;;;;;;;0.73;0.73;;;24.40;99.90;;;;;;4994883;28;20113;-89
2021/07/17 06:39:20;;;;;;;0.80;0.80;;;24.30;99.90;;;;;;4994837;28;20033;-87
2021/07/17 06:41:46;;;;;;;1.08;0.98;;;24.20;99.90;;;;;;4977545;28;20097;-88
2021/07/17 06:44:11;;;;;;;0.80;0.80;;;24.20;99.90;;;;;;4977815;28;20050;-87
2021/07/17 06:46:37;;;;;;;0.80;0.80;;;24.10;99.90;;;;;;4977234;28;20470;-80
2021/07/17 06:49:04;;;;;;;1.00;0.93;;;24.50;99.90;;;;;;4995588;28;20125;-88
2021/07/17 06:51:31;;;;;;;2.85;1.15;;;25.00;99.90;;;;;;4962455;28;20129;-90
2021/07/17 06:53:57;;;;;;;0.80;0.80;;;25.30;99.90;;;;;;4998198;28;20089;-91
2021/07/17 06:56:23;;;;;;;0.80;0.80;;;25.60;99.90;;;;;;4996184;28;20042;-91
2021/07/17 06:58:49;;;;;;;0.80;0.80;;;24.90;99.90;;;;;;4994985;28;20046;-83
2021/07/17 07:01:16;;;;;;;0.70;0.70;;;24.90;99.90;;;;;;4993696;28;20033;-84
2021/07/17 07:03:42;;;;;;;1.85;1.38;;;25.40;99.90;;;;;;4994096;28;20038;-85
2021/07/17 07:06:08;;;;;;;1.25;1.15;;;25.00;99.90;;;;;;4995550;28;20030;-86
2021/07/17 07:08:34;;;;;;;2.15;1.05;;;24.60;99.90;;;;;;4994433;28;20053;-88
2021/07/17 07:11:00;;;;;;;1.58;1.30;;;24.50;99.90;;;;;;4976805;28;20084;-89
2021/07/17 07:13:25;;;;;;;2.15;1.67;;;24.60;99.90;;;;;;4993421;28;20056;-85
2021/07/17 07:15:51;;;;;;;0.95;0.95;;;24.70;99.90;;;;;;4993751;28;20085;-86
2021/07/17 07:18:17;;;;;;;1.83;1.70;;;24.50;99.90;;;;;;4993688;28;20474;-83
2021/07/17 07:20:43;;;;;;;3.08;1.90;;;24.80;99.90;;;;;;4993990;28;20097;-88
2021/07/17 07:23:09;;;;;;;1.15;1.13;;;24.80;99.90;;;;;;5000403;28;20494;-84
2021/07/17 07:25:35;;;;;;;1.00;1.00;;;25.10;99.90;;;;;;4999959;28;20045;-81
2021/07/17 07:28:00;;;;;;;0.60;0.60;;;24.90;99.90;;;;;;5013424;28;20116;-80
2021/07/17 07:30:26;;;;;;;1.35;1.25;;;24.60;99.90;;;;;;5012713;28;20544;-80
2021/07/17 07:32:53;;;;;;;1.40;1.30;;;24.60;99.90;;;;;;4995147;28;20034;-82
2021/07/17 07:35:24;;;;;;;0.90;0.90;;;24.80;99.90;;;;;;5013650;28;20034;-86
2021/07/17 07:37:50;;;;;;;4.93;2.55;;;24.50;99.90;;;;;;4996165;28;20117;-85
2021/07/17 07:40:17;;;;;;;0.82;0.82;;;24.50;99.90;;;;;;4996157;28;20044;-85
2021/07/17 07:42:43;;;;;;;1.17;1.15;;;24.60;99.90;;;;;;5013474;28;20394;-80
2021/07/17 07:45:09;;;;;;;1.38;1.27;;;24.90;99.90;;;;;;4995906;28;20034;-89
2021/07/17 07:47:35;;;;;;;1.08;0.98;;;24.80;99.90;;;;;;4995500;28;20129;-84
2021/07/17 07:50:01;;;;;;;1.13;1.10;;;25.00;99.90;;;;;;5012914;28;20116;-83
2021/07/17 07:52:27;;;;;;;2.70;1.48;;;25.10;99.90;;;;;;5013004;28;20065;-86
2021/07/17 07:54:53;;;;;;;0.80;0.80;;;25.00;99.90;;;;;;5013123;28;20064;-86
2021/07/17 07:57:19;;;;;;;0.90;0.90;;;25.00;99.90;;;;;;5014901;28;20040;-95
2021/07/17 07:59:45;;;;;;;1.27;1.17;;;25.40;99.90;;;;;;5014996;28;20100;-89
2021/07/17 08:02:11;;;;;;;3.33;2.17;;;25.90;99.90;;;;;;5014910;28;20026;-80
2021/07/17 08:04:37;;;;;;;2.72;2.40;;;26.10;99.90;;;;;;5015052;28;20034;-86
2021/07/17 08:07:03;;;;;;;0.95;0.93;;;26.10;99.90;;;;;;5013830;28;20081;-90
2021/07/17 08:09:29;;;;;;;2.60;1.90;;;25.50;99.90;;;;;;5015776;28;20664;-85
2021/07/17 08:11:55;;;;;;;1.90;1.80;;;25.80;99.90;;;;;;5013273;28;20232;-91
2021/07/17 08:14:21;;;;;;;1.33;1.23;;;25.80;99.90;;;;;;5012278;28;20033;-88
2021/07/17 08:16:47;;;;;;;0.70;0.70;;;25.80;99.90;;;;;;5012384;28;20041;-83
2021/07/17 08:19:13;;;;;;;1.77;0.90;;;26.50;99.90;;;;;;5012549;28;20053;-86
2021/07/17 08:21:39;;;;;;;2.13;1.55;;;26.50;99.90;;;;;;5012071;28;20025;-85
2021/07/17 08:24:06;;;;;;;0.82;0.82;;;26.00;99.90;;;;;;5013231;28;20038;-82
2021/07/17 08:26:32;;;;;;;1.52;1.10;;;26.30;99.90;;;;;;5012174;28;20021;-82
2021/07/17 08:28:58;;;;;;;1.08;0.98;;;26.30;99.90;;;;;;5011651;28;20359;-83
2021/07/17 08:31:24;;;;;;;2.35;2.17;;;26.70;99.90;;;;;;5011285;28;20505;-80
2021/07/17 08:33:50;;;;;;;1.30;1.08;;;26.50;99.90;;;;;;4994036;28;20088;-83
2021/07/17 08:36:17;;;;;;;0.65;0.65;;;26.60;99.90;;;;;;5007769;28;20508;-83
2021/07/17 08:38:44;;;;;;;0.98;0.95;;;26.50;99.90;;;;;;5011799;28;20026;-86
2021/07/17 08:41:10;;;;;;;1.25;1.15;;;26.40;99.90;;;;;;4995313;28;20453;-84
2021/07/17 08:43:37;;;;;;;0.80;0.80;;;26.50;99.90;;;;;;5011952;28;20036;-84
2021/07/17 08:46:04;;;;;;;4.03;1.77;;;27.00;99.90;;;;;;5012478;28;20030;-85
2021/07/17 08:48:30;;;;;;;3.20;2.13;;;27.30;99.90;;;;;;5011731;28;20117;-88
2021/07/17 08:50:59;;;;;;;0.75;0.75;;;27.40;99.90;;;;;;5012132;28;20029;-80
2021/07/17 08:53:26;;;;;;;6.13;1.83;;;27.30;99.90;;;;;;5011900;28;20068;-85
2021/07/17 08:55:54;;;;;;;3.42;2.83;;;27.30;99.90;;;;;;5012301;28;20080;-85
2021/07/17 08:58:20;;;;;;;5.70;3.08;;;27.30;99.90;;;;;;4994267;28;20052;-85
2021/07/17 09:00:46;;;;;;;1.88;1.73;;;27.10;99.90;;;;;;5012423;28;20121;-78
2021/07/17 09:03:18;;;;;;;1.27;1.17;;;27.10;99.90;;;;;;5011516;28;20398;-83
2021/07/17 09:05:45;;;;;;;0.85;0.85;;;26.80;99.90;;;;;;5012011;28;20129;-86
2021/07/17 09:08:13;;;;;;;2.92;1.50;;;26.90;99.90;;;;;;5011732;28;20454;-82
2021/07/17 09:10:44;;;;;;;1.25;1.05;;;27.30;99.90;;;;;;5011454;28;20053;-82
2021/07/17 09:13:09;;;;;;;;;;;26.90;99.90;;;;;;5011542;28;20026;-83
2021/07/17 09:15:36;;;;;;;0.80;0.80;;;27.00;99.90;;;;;;5011122;28;19948;-82
2021/07/17 09:18:06;;;;;;;0.73;0.70;;;27.20;99.90;;;;;;5011305;28;20112;-84
2021/07/17 09:20:33;;;;;;;0.60;0.60;;;27.40;99.90;;;;;;5011096;28;20450;-81
2021/07/17 09:23:02;;;;;;;2.08;1.88;;;27.40;99.90;;;;;;4993828;28;20030;-78
2021/07/17 09:25:40;;;;;;;3.33;1.70;;;27.20;99.90;;;;;;5008457;28;20042;-79
2021/07/17 09:28:15;;;;;;;0.57;0.57;;;27.00;99.90;;;;;;5014702;28;20112;-78
2021/07/17 09:30:42;;;;;;;0.65;0.65;;;27.10;99.90;;;;;;5007149;28;20046;-79
2021/07/17 09:33:08;;;;;;;1.20;0.90;;;27.20;99.90;;;;;;5014623;28;20390;-78
2021/07/17 09:35:37;;;;;;;0.77;0.77;;;27.60;99.90;;;;;;5015030;28;20581;-81
2021/07/17 09:38:05;;;;;;;0.90;0.90;;;27.80;99.90;;;;;;4998131;28;20057;-82
2021/07/17 09:40:55;;;;;;;0.70;0.70;;;27.90;99.90;;;;;;4997631;28;20124;-78
2021/07/17 09:43:38;;;;;;;0.68;0.68;;;28.30;99.90;;;;;;4996950;28;20030;-82
2021/07/17 09:46:24;;;;;;;0.60;0.60;;;28.50;99.90;;;;;;5007664;28;20121;-81
2021/07/17 09:48:52;;;;;;;2.95;1.40;;;28.20;99.90;;;;;;5010789;28;20042;-84
2021/07/17 09:51:22;;;;;;;2.00;1.75;;;28.30;99.90;;;;;;4994686;28;20054;-83
2021/07/17 09:53:49;;;;;;;1.92;1.77;;;28.40;99.90;;;;;;4995085;28;20030;-83
2021/07/17 09:56:20;;;;;;;0.85;0.80;;;28.80;99.90;;;;;;4995153;28;20037;-79
2021/07/17 09:58:46;;;;;;;1.42;1.33;;;29.00;99.90;;;;;;4995046;28;20070;-90
2021/07/17 10:01:15;;;;;;;3.53;2.63;;;29.40;99.90;;;;;;4978629;28;20035;-84
2021/07/17 10:03:41;;;;;;;1.40;1.27;;;28.70;99.20;;;;;;4993460;28;20034;-81
2021/07/17 10:06:24;;;;;;;4.63;1.95;;;28.80;99.90;;;;;;4984751;28;20057;-80
2021/07/17 10:08:49;;;;;;;2.60;2.05;;;29.20;99.70;;;;;;4986979;28;20026;-80
2021/07/17 10:11:22;;;;;;;8.68;3.97;;;29.30;99.50;;;;;;5004350;28;20104;-80
2021/07/17 10:13:48;;;;;;;1.35;1.25;;;29.40;97.90;;;;;;5013830;28;20033;-84
2021/07/17 10:16:19;;;;;;;0.82;0.82;;;29.20;98.30;;;;;;5014376;28;20052;-82
2021/07/17 10:18:46;;;;;;;1.33;1.23;;;29.40;98.50;;;;;;5014524;28;20108;-88
2021/07/17 10:21:13;;;;;;;2.08;1.60;;;29.40;98.70;;;;;;5013988;28;20088;-81
2021/07/17 10:23:39;;;;;;;1.67;1.38;;;29.40;98.00;;;;;;5014174;28;20040;-80
2021/07/17 10:26:06;;;;;;;2.25;1.85;;;29.60;98.20;;;;;;4999280;28;20061;-81
2021/07/17 10:28:32;;;;;;;0.55;0.55;;;29.90;97.90;;;;;;4977506;28;20105;-84
2021/07/17 10:30:58;;;;;;;6.20;1.75;;;29.70;97.10;;;;;;4976757;28;20394;-87
2021/07/17 10:33:25;;;;;;;3.63;1.20;;;29.60;96.20;;;;;;4994658;28;20039;-89
2021/07/17 10:35:54;;;;;;;1.05;0.82;;;29.30;96.70;;;;;;4993738;28;20039;-84
2021/07/17 10:38:20;;;;;;;1.65;1.35;;;29.40;96.90;;;;;;4993199;28;20077;-83
2021/07/17 10:40:47;;;;;;;6.78;1.02;;;29.50;96.10;;;;;;4992707;28;20037;-85
2021/07/17 10:43:14;;;;;;;0.75;0.75;;;29.60;95.70;;;;;;4992589;28;20097;-87
2021/07/17 10:45:45;;;;;;;0.93;0.90;;;29.70;95.70;;;;;;4975829;28;20038;-81
2021/07/17 10:48:27;;;;;;;1.42;1.17;;;29.50;96.00;;;;;;4993928;28;20046;-80
2021/07/17 10:50:55;;;;;;;0.95;0.93;;;29.50;96.70;;;;;;4993057;28;20069;-82
2021/07/17 10:53:42;;;;;;;1.45;0.98;;;30.00;95.70;;;;;;4993002;28;20061;-82
2021/07/17 10:56:27;;;;;;;3.53;2.15;;;30.50;95.00;;;;;;4997374;28;20442;-82
2021/07/17 10:59:16;;;;;;;0.82;0.77;;;30.70;94.70;;;;;;4976496;28;20051;-85
2021/07/17 11:02:12;;;;;;;2.53;1.87;;;30.70;94.00;;;;;;4965358;28;20049;-81
2021/07/17 11:04:44;;;;;;;0.90;0.60;;;30.30;93.10;;;;;;4981944;28;20041;-89
2021/07/17 11:07:16;;;;;;;1.83;1.27;;;30.20;94.40;;;;;;4976746;28;20536;-92
2021/07/17 11:09:51;;;;;;;0.73;0.73;;;30.30;94.20;;;;;;4994081;28;20078;-87
2021/07/17 11:12:19;;;;;;;1.75;1.10;;;30.50;94.40;;;;;;4993277;28;20040;-82
2021/07/17 11:14:46;;;;;;;1.50;0.68;;;30.60;93.40;;;;;;4975980;28;20042;-89
2021/07/17 11:17:12;;;;;;;0.70;0.65;;;30.90;92.80;;;;;;4976742;28;20050;-85
2021/07/17 11:19:38;;;;;;;1.80;1.52;;;31.20;93.10;;;;;;4993522;28;20030;-82
2021/07/17 11:22:14;;;;;;;0.98;0.88;;;31.20;92.70;;;;;;4976135;28;20069;-84
2021/07/17 11:24:40;;;;;;;0.90;0.85;;;31.60;92.20;;;;;;4993707;28;20101;-81
2021/07/17 11:27:14;;;;;;;0.70;0.70;;;31.30;90.90;;;;;;4975960;28;20551;-82
2021/07/17 11:29:45;;;;;;;1.42;1.15;;;31.50;90.80;;;;;;4993331;28;20046;-84
2021/07/17 11:32:13;;;;;;;0.88;0.80;;;31.50;90.30;;;;;;4993120;28;20030;-82
2021/07/17 11:34:45;;;;;;;0.77;0.77;;;31.60;91.90;;;;;;4975688;28;20039;-82
2021/07/17 11:37:13;;;;;;;0.98;0.77;;;32.00;90.40;;;;;;4993426;28;20034;-83
2021/07/17 11:39:48;;;;;;;0.40;0.40;;;32.20;89.60;;;;;;4992958;28;20030;-85
2021/07/17 11:42:16;;;;;;;0.50;0.50;;;32.10;89.60;;;;;;4993440;28;20077;-83
2021/07/17 11:44:45;;;;;;;0.60;0.60;;;32.10;88.00;;;;;;4993149;28;20039;-84
2021/07/17 11:47:22;;;;;;;0.33;0.33;;;32.40;87.70;;;;;;4985312;28;20038;-86
2021/07/17 11:49:53;;;;;;;0.47;0.45;;;32.20;86.80;;;;;;4992627;28;20287;-86
2021/07/17 11:52:26;;;;;;;0.95;0.85;;;32.30;87.10;;;;;;4975058;28;20030;-81
2021/07/17 11:55:04;;;;;;;0.60;0.60;;;32.10;87.80;;;;;;4975540;28;20123;-85
2021/07/17 11:57:34;;;;;;;0.75;0.60;;;32.10;90.10;;;;;;4992903;28;20490;-82
2021/07/17 12:00:07;;;;;;;0.88;0.80;;;32.50;87.40;;;;;;4993169;28;20506;-84
2021/07/17 12:02:33;;;;;;;0.30;0.30;;;32.20;87.80;;;;;;4975546;28;20478;-80
2021/07/17 12:05:05;;;;;;;1.17;0.88;;;32.50;87.70;;;;;;4992596;28;20041;-82
2021/07/17 12:07:33;;;;;;;0.50;0.50;;;32.90;84.60;;;;;;4993109;28;20352;-85
2021/07/17 12:10:05;;;;;;;0.50;0.50;;;33.00;83.10;;;;;;4992447;28;20053;-85
2021/07/17 12:12:32;;;;;;;1.23;1.05;;;32.60;83.30;;;;;;4992619;28;20030;-82
2021/07/17 12:15:33;;;;;;;1.60;1.50;;;32.40;81.70;;;;;;4992535;28;20133;-86
2021/07/17 12:18:04;;;;;;;0.52;0.40;;;31.80;83.00;;;;;;4992453;28;20027;-85
2021/07/17 12:20:34;;;;;;;0.30;0.30;;;32.10;85.40;;;;;;4992883;28;20138;-82
2021/07/17 12:23:06;;;;;;;;;;;32.50;83.30;;;;;;4992932;28;20042;-86
2021/07/17 12:25:46;;;;;;;0.43;0.38;;;32.90;82.10;;;;;;4992326;28;19906;-85
2021/07/17 12:28:24;;;;;;;0.30;0.30;;;33.20;81.00;;;;;;4991651;28;20068;-85
2021/07/17 12:30:51;;;;;;;1.48;0.88;;;33.40;82.40;;;;;;4992794;28;20046;-86
2021/07/17 12:33:32;;;;;;;0.68;0.45;;;33.50;83.80;;;;;;4991991;28;20137;-89
2021/07/17 12:36:15;;;;;;;0.75;0.57;;;33.90;82.00;;;;;;4992408;28;20093;-83
2021/07/17 12:38:47;;;;;;;0.52;0.50;;;33.70;80.30;;;;;;4974608;28;20466;-81
2021/07/17 12:41:28;;;;;;;0.70;0.47;;;33.80;80.20;;;;;;4992561;28;20434;-84
2021/07/17 12:43:56;;;;;;;0.30;0.30;;;34.30;80.20;;;;;;4991819;28;20109;-87
2021/07/17 12:46:23;;;;;;;0.57;0.57;;;34.20;78.80;;;;;;4992277;28;20030;-86
2021/07/17 12:49:09;;;;;;;2.78;0.63;;;34.00;79.20;;;;;;4991809;28;20026;-81
2021/07/17 12:51:45;;;;;;;3.30;1.10;;;34.10;78.40;;;;;;4992503;28;20374;-84